createdAt,value
2023-02-18T00:11:08.238Z,3.6220735785953178
2023-02-18T00:17:43.061Z,1.9230769230769231
2023-02-18T00:24:41.798Z,2.197324414715719
2023-02-18T00:32:57.433Z,2.7759197324414715
2023-02-18T00:43:01.046Z,2.9096989966555182
2023-02-18T00:49:54.729Z,2.3812709030100336
2023-02-18T00:57:00.009Z,3.5953177257525084
2023-02-18T01:04:00.304Z,2.7324414715719065
2023-02-18T01:14:17.049Z,3.5050167224080266
2023-02-18T01:21:12.126Z,2.6220735785953178
2023-02-18T01:28:07.749Z,3.1237458193979935
2023-02-18T01:38:57.437Z,3.3277591973244145
2023-02-18T01:48:32.781Z,4.274247491638796
2023-02-18T01:55:39.628Z,2.331103678929766
2023-02-18T02:02:28.333Z,2.939799331103679
2023-02-18T02:09:38.207Z,2.0635451505016724
2023-02-18T02:16:30.898Z,3.4782608695652173
2023-02-18T02:23:19.936Z,1.9565217391304348
2023-02-18T02:30:12.796Z,2.9966555183946486
2023-02-18T02:37:00.597Z,2.2240802675585285
2023-02-18T02:48:00.047Z,3.568561872909699
2023-02-18T02:54:56.317Z,3.3779264214046822
2023-02-18T03:01:43.230Z,2.4214046822742477
2023-02-18T03:08:31.502Z,2.8060200668896322
2023-02-18T03:21:53.161Z,2.725752508361204
2023-02-18T03:28:48.888Z,2.6053511705685617
2023-02-18T03:35:35.644Z,2.5752508361204014
2023-02-18T03:42:28.131Z,2.6956521739130435
2023-02-18T03:54:56.554Z,2.8327759197324416
2023-02-18T04:06:27.604Z,1.959866220735786
2023-02-18T04:13:50.496Z,2.4648829431438126
2023-02-18T04:21:02.327Z,2.20066889632107
2023-02-18T04:28:18.816Z,2.411371237458194
2023-02-18T04:36:16.863Z,2.7759197324414715
2023-02-18T04:43:14.471Z,2.4648829431438126
2023-02-18T04:50:10.671Z,2.508361204013378
2023-02-18T04:56:54.119Z,2.17056856187291
2023-02-18T05:04:50.068Z,2.511705685618729
2023-02-18T05:19:57.970Z,2.3277591973244145
2023-02-18T05:26:43.081Z,2.1237458193979935
2023-02-18T05:33:28.348Z,2.983277591973244
2023-02-18T05:40:08.353Z,2.3578595317725752
2023-02-18T05:49:30.793Z,2.488294314381271
2023-02-18T05:56:10.297Z,1.7190635451505016
2023-02-18T06:02:51.328Z,1.9866220735785953
2023-02-18T06:09:51.066Z,1.9331103678929766
2023-02-18T06:17:01.741Z,2.8361204013377925
2023-02-18T06:30:03.244Z,2.408026755852843
2023-02-18T06:38:02.809Z,2.8561872909698995
2023-02-18T06:47:04.721Z,2.9163879598662206
2023-02-18T06:54:44.505Z,1.5953177257525084
2023-02-18T07:02:18.819Z,2.274247491638796
2023-02-18T07:10:43.647Z,1.7391304347826086
2023-02-18T07:18:13.020Z,1.117056856187291
2023-02-18T07:25:29.327Z,1.1304347826086956
2023-02-18T07:33:27.692Z,1.2909698996655519
2023-02-18T07:40:25.521Z,0.7759197324414716
2023-02-18T07:47:52.823Z,0.802675585284281
2023-02-18T07:55:01.604Z,1.7190635451505016
2023-02-18T08:06:37.864Z,2.471571906354515
2023-02-18T08:14:34.822Z,1.9297658862876255
2023-02-18T08:26:17.711Z,3.0334448160535117
2023-02-18T08:35:04.050Z,1.9565217391304348
2023-02-18T08:48:20.332Z,1.3979933110367893
2023-02-18T08:55:23.399Z,2.0501672240802677
2023-02-18T09:08:12.167Z,1.0903010033444815
2023-02-18T09:15:05.581Z,0.6889632107023411
2023-02-18T09:22:05.912Z,1.0367892976588629
2023-02-18T09:28:56.959Z,1.1237458193979932
2023-02-18T09:36:32.988Z,0.939799331103679
2023-02-18T09:44:24.069Z,0.4816053511705686
2023-02-18T09:51:18.889Z,0.33444816053511706
2023-02-18T09:58:17.595Z,0.46153846153846156
2023-02-18T10:06:55.924Z,0.3411371237458194
2023-02-18T10:13:41.082Z,0.7625418060200669
2023-02-18T10:20:25.750Z,0.3411371237458194
2023-02-18T10:27:38.516Z,0.15384615384615385
2023-02-18T10:34:25.737Z,0.6622073578595318
2023-02-18T10:41:06.003Z,0.862876254180602
2023-02-18T10:47:45.579Z,0.7892976588628763
2023-02-18T10:54:17.979Z,0.7190635451505016
2023-02-18T11:08:07.394Z,1.080267558528428
2023-02-18T11:14:37.885Z,0.5183946488294314
2023-02-18T11:21:11.197Z,0.7324414715719063
2023-02-18T11:28:20.526Z,0.5484949832775919
2023-02-18T11:40:39.887Z,0.4280936454849498
2023-02-18T11:47:16.218Z,0.3745819397993311
2023-02-18T11:53:47.529Z,0.46153846153846156
2023-02-18T12:00:22.332Z,0.46153846153846156
2023-02-18T12:06:59.676Z,0.0
2023-02-18T12:13:43.114Z,0.6287625418060201
2023-02-18T12:20:29.673Z,0.6488294314381271
2023-02-18T12:27:12.814Z,1.4214046822742474
2023-02-18T12:33:47.245Z,1.879598662207358
2023-02-18T12:40:18.825Z,1.585284280936455
2023-02-18T12:46:49.446Z,1.411371237458194
2023-02-18T12:53:18.726Z,1.2474916387959867
2023-02-18T13:06:53.280Z,1.394648829431438
2023-02-18T13:13:25.038Z,1.374581939799331
2023-02-18T13:19:57.139Z,1.8762541806020068
2023-02-18T13:28:29.835Z,2.367892976588629
2023-02-18T13:35:16.682Z,3.5819397993311037
2023-02-18T13:42:52.662Z,4.327759197324415
2023-02-18T13:49:34.829Z,1.919732441471572
2023-02-18T13:56:20.707Z,3.080267558528428
2023-02-18T14:02:56.332Z,2.2842809364548495
2023-02-18T14:09:39.649Z,2.782608695652174
2023-02-18T14:16:29.953Z,2.3645484949832776
2023-02-18T14:23:45.637Z,2.9565217391304346
2023-02-18T14:31:30.634Z,2.725752508361204
2023-02-18T14:38:30.696Z,2.5752508361204014
2023-02-18T14:47:17.234Z,2.0668896321070234
2023-02-18T14:53:50.228Z,2.3846153846153846
2023-02-18T15:00:34.243Z,3.31438127090301
2023-02-18T15:12:13.918Z,3.759197324414716
2023-02-18T15:19:09.661Z,2.903010033444816
2023-02-18T15:35:49.406Z,3.0
2023-02-18T15:42:55.085Z,2.2140468227424748
2023-02-18T15:50:04.581Z,2.9063545150501673
2023-02-18T15:57:20.667Z,1.8662207357859533
2023-02-18T16:09:10.549Z,2.6220735785953178
2023-02-18T16:16:16.232Z,1.62876254180602
2023-02-18T16:23:03.759Z,2.2240802675585285
2023-02-18T16:29:54.885Z,2.3812709030100336
2023-02-18T16:37:08.103Z,2.0100334448160537
2023-02-18T16:44:23.021Z,2.220735785953177
2023-02-18T16:53:14.833Z,1.5752508361204014
2023-02-18T17:00:04.132Z,2.0234113712374584
2023-02-18T17:06:57.191Z,1.8494983277591974
2023-02-18T17:13:35.409Z,1.6220735785953178
2023-02-18T17:20:10.256Z,1.8862876254180603
2023-02-18T17:30:48.890Z,1.806020066889632
2023-02-18T17:37:21.646Z,1.040133779264214
2023-02-18T17:43:57.989Z,1.6187290969899666
2023-02-18T17:50:36.226Z,1.6220735785953178
2023-02-18T17:57:12.922Z,1.9264214046822743
2023-02-18T18:03:54.827Z,2.5618729096989967
2023-02-18T18:10:34.580Z,2.036789297658863
2023-02-18T18:17:13.464Z,1.9933110367892977
2023-02-18T18:25:54.550Z,2.4615384615384617
2023-02-18T18:37:20.367Z,2.9498327759197323
2023-02-18T18:43:58.575Z,2.1270903010033444
2023-02-18T18:50:48.069Z,1.4080267558528428
2023-02-18T18:58:08.912Z,1.588628762541806
2023-02-18T19:05:11.576Z,1.5250836120401339
2023-02-18T19:11:43.545Z,2.668896321070234
2023-02-18T19:25:41.101Z,2.899665551839465
2023-02-18T19:34:01.198Z,4.414715719063545
2023-02-18T19:41:26.954Z,2.1638795986622075
2023-02-18T19:50:08.816Z,1.9732441471571907
2023-02-18T20:00:12.172Z,2.100334448160535
2023-02-18T20:09:03.361Z,1.9498327759197325
2023-02-18T20:17:07.063Z,1.5016722408026757
2023-02-18T20:25:18.313Z,1.7625418060200668
2023-02-18T20:32:50.656Z,1.8361204013377928
2023-02-18T20:40:14.152Z,2.150501672240803
2023-02-18T20:48:52.857Z,2.6053511705685617
2023-02-18T20:56:08.229Z,1.6989966555183946
2023-02-18T21:03:54.743Z,1.3411371237458194
2023-02-18T21:10:47.383Z,0.9063545150501672
2023-02-18T21:17:52.733Z,1.451505016722408
2023-02-18T21:24:31.241Z,1.6321070234113713
2023-02-18T21:31:11.433Z,1.4782608695652173
2023-02-18T21:42:29.370Z,1.2709030100334449
2023-02-18T21:48:59.520Z,1.3444816053511706
2023-02-18T21:55:29.373Z,1.0434782608695652
2023-02-18T22:02:02.261Z,0.7692307692307693
2023-02-18T22:08:34.808Z,1.0769230769230769
2023-02-18T22:15:06.944Z,1.0234113712374582
2023-02-18T22:22:28.057Z,2.2073578595317724
2023-02-18T22:29:32.420Z,1.7357859531772575
2023-02-18T22:43:14.499Z,2.2240802675585285
2023-02-18T22:57:27.211Z,1.3578595317725752
2023-02-18T23:11:01.738Z,0.9364548494983278
2023-02-18T23:18:17.219Z,0.8361204013377926
2023-02-18T23:25:36.766Z,1.0468227424749164
2023-02-18T23:33:35.851Z,1.0836120401337792
2023-02-18T23:40:13.491Z,0.7123745819397993
2023-02-18T23:46:51.533Z,0.7692307692307693
2023-02-18T23:55:02.891Z,0.9498327759197325
